createdAt,value
2022-08-28T00:27:22.353Z,14
2022-08-28T00:56:10.386Z,13
2022-08-28T01:24:30.491Z,13
2022-08-28T01:53:15.815Z,13
2022-08-28T02:21:58.575Z,14
2022-08-28T02:50:47.797Z,13
2022-08-28T03:19:22.468Z,14
2022-08-28T03:48:13.691Z,13
2022-08-28T04:16:53.462Z,14
2022-08-28T04:45:21.951Z,17
2022-08-28T05:14:06.408Z,18
2022-08-28T05:42:45.171Z,20
2022-08-28T06:11:42.202Z,20
2022-08-28T06:40:05.999Z,20
2022-08-28T07:08:46.823Z,19
2022-08-28T07:37:41.106Z,18
2022-08-28T08:06:11.726Z,18
2022-08-28T08:34:57.600Z,17
2022-08-28T09:03:28.190Z,17
2022-08-28T09:32:06.821Z,16
2022-08-28T10:00:48.958Z,16
2022-08-28T10:29:27.846Z,17
2022-08-28T10:58:24.664Z,16
2022-08-28T11:26:34.779Z,16
2022-08-28T11:55:16.184Z,16
2022-08-28T12:23:59.755Z,16
2022-08-28T12:52:22.033Z,16
2022-08-28T13:21:06.716Z,15
2022-08-28T13:49:55.341Z,14
2022-08-28T14:18:42.278Z,14
2022-08-28T14:47:33.187Z,14
2022-08-28T15:16:19.822Z,14
2022-08-28T15:44:57.845Z,14
2022-08-28T16:13:22.969Z,16
2022-08-28T16:42:06.565Z,16
2022-08-28T17:10:52.793Z,17
2022-08-28T17:39:26.395Z,16
2022-08-28T18:08:14.325Z,16
2022-08-28T18:36:52.917Z,16
2022-08-28T19:05:38.309Z,14
2022-08-28T19:34:17.184Z,15
2022-08-28T20:02:58.465Z,14
2022-08-28T20:31:33.404Z,13
2022-08-28T21:00:13.989Z,14
2022-08-28T21:29:05.642Z,13
2022-08-28T21:57:49.269Z,14
2022-08-28T22:26:36.180Z,13
2022-08-28T22:55:23.981Z,13
2022-08-28T23:23:53.089Z,14
2022-08-28T23:52:44.696Z,14
